sim
Sign-in with your pilot id or email,
or register
Callsign
Passwort

Schedule Details

Flight Number: DLH2217 (2)
Departure: Toulouse Blagnac Airport (LFBO) at 07:25
Arrival: Munich Airport (EDDM) at 09:10
Route: Lufthansa Passenger Schedule. Enter filed route here before submitting Pirep.

Weather Information
Getting current METAR information for LFBO 231330Z AUTO 21004KT 170V270 CAVOK 27/12 Q1009 NOSIG
Getting current METAR information for EDDM 231350Z 20004KT 9999 FEW015 FEW020TCU SCT043 18/16 Q1009 NOSIG

Schedule Frequency

Route Map